createdAt,value
2019-01-13T00:00:51.218Z,0.00
2019-01-13T00:01:51.131Z,0.00
2019-01-13T00:02:51.046Z,0.00
2019-01-13T00:03:50.956Z,0.00
2019-01-13T00:04:50.871Z,0.00
2019-01-13T00:05:50.796Z,0.00
2019-01-13T00:06:50.706Z,0.00
2019-01-13T00:07:50.623Z,0.00
2019-01-13T00:08:50.532Z,0.00
2019-01-13T00:09:50.444Z,0.00
2019-01-13T00:10:50.356Z,0.00
2019-01-13T00:11:50.271Z,0.00
2019-01-13T00:12:50.196Z,0.00
2019-01-13T00:13:50.106Z,0.00
2019-01-13T00:14:50.020Z,0.00
2019-01-13T00:15:49.932Z,0.00
2019-01-13T00:16:49.846Z,0.00
2019-01-13T00:17:49.757Z,0.00
2019-01-13T00:18:49.682Z,0.00
2019-01-13T00:19:49.596Z,0.00
2019-01-13T00:20:49.510Z,0.00
2019-01-13T00:21:49.420Z,0.00
2019-01-13T00:22:49.334Z,0.00
2019-01-13T00:23:49.247Z,0.00
2019-01-13T00:24:49.172Z,0.00
2019-01-13T00:25:49.087Z,0.00
2019-01-13T00:26:48.998Z,0.00
2019-01-13T00:27:48.910Z,0.00
2019-01-13T00:28:48.821Z,0.00
2019-01-13T00:29:48.735Z,0.00
2019-01-13T00:30:48.658Z,0.00
2019-01-13T00:31:48.573Z,0.00
2019-01-13T00:32:48.487Z,0.00
2019-01-13T00:33:48.406Z,0.00
2019-01-13T00:34:48.322Z,0.00
2019-01-13T00:35:48.234Z,0.00
2019-01-13T00:36:48.147Z,0.00
2019-01-13T00:37:48.062Z,0.00
2019-01-13T00:38:47.984Z,0.00
2019-01-13T00:39:47.885Z,0.00
2019-01-13T00:40:48.098Z,0.00
2019-01-13T00:41:47.723Z,0.00
2019-01-13T00:42:47.693Z,0.00
2019-01-13T00:43:47.547Z,0.00
2019-01-13T00:44:47.459Z,0.00
2019-01-13T00:45:47.373Z,0.00
2019-01-13T00:46:47.288Z,0.00
2019-01-13T00:47:47.210Z,0.00
2019-01-13T00:48:47.126Z,0.00
2019-01-13T00:49:47.035Z,0.00
2019-01-13T00:50:46.950Z,0.00
2019-01-13T00:51:46.877Z,0.00
2019-01-13T00:52:46.773Z,0.00
2019-01-13T00:53:46.704Z,0.00
2019-01-13T00:54:46.614Z,0.00
2019-01-13T00:55:46.525Z,0.00
2019-01-13T00:56:46.439Z,0.00
2019-01-13T00:57:46.352Z,0.00
2019-01-13T00:58:46.274Z,0.00
2019-01-13T00:59:46.187Z,0.00
2019-01-13T01:00:46.101Z,0.00
2019-01-13T01:01:46.012Z,0.00
2019-01-13T01:02:45.925Z,0.00
2019-01-13T01:03:45.837Z,0.00
2019-01-13T01:04:45.762Z,0.00
2019-01-13T01:05:45.675Z,0.00
2019-01-13T01:06:45.601Z,0.00
2019-01-13T01:07:47.050Z,0.00
2019-01-13T01:08:45.412Z,0.00
2019-01-13T01:09:45.326Z,0.00
2019-01-13T01:10:45.239Z,0.00
2019-01-13T01:11:45.151Z,0.00
2019-01-13T01:12:45.077Z,0.00
2019-01-13T01:13:44.990Z,0.00
2019-01-13T01:14:44.906Z,0.00
2019-01-13T01:15:44.815Z,0.00
2019-01-13T01:16:44.727Z,0.00
2019-01-13T01:17:44.639Z,0.00
2019-01-13T01:18:44.563Z,0.00
2019-01-13T01:19:44.477Z,0.00
2019-01-13T01:20:44.389Z,0.00
2019-01-13T01:21:44.304Z,0.00
2019-01-13T01:22:44.217Z,0.00
2019-01-13T01:23:44.127Z,0.00
2019-01-13T01:24:44.040Z,0.00
2019-01-13T01:25:43.964Z,0.00
2019-01-13T01:26:43.877Z,0.00
2019-01-13T01:27:43.789Z,0.00
2019-01-13T01:28:44.418Z,0.00
2019-01-13T01:29:43.617Z,0.00
2019-01-13T01:30:43.528Z,0.00
2019-01-13T01:31:43.454Z,0.00
2019-01-13T01:32:43.365Z,0.00
2019-01-13T01:33:43.282Z,0.00
2019-01-13T01:34:43.193Z,0.00
2019-01-13T01:35:43.104Z,0.00
2019-01-13T01:36:43.016Z,0.00
2019-01-13T01:37:42.929Z,0.00
2019-01-13T01:38:42.859Z,0.00
2019-01-13T01:39:42.766Z,0.00
2019-01-13T01:40:42.680Z,0.00
2019-01-13T01:41:42.591Z,0.00
2019-01-13T01:42:42.508Z,0.00
2019-01-13T01:43:42.417Z,0.00
2019-01-13T01:44:42.342Z,0.00
2019-01-13T01:45:42.255Z,0.00
2019-01-13T01:46:42.179Z,0.00
2019-01-13T01:47:42.080Z,0.00
2019-01-13T01:48:41.991Z,0.00
2019-01-13T01:49:41.905Z,0.00
2019-01-13T01:50:41.818Z,0.00
2019-01-13T01:51:41.742Z,0.00
2019-01-13T01:52:41.655Z,0.00
2019-01-13T01:53:41.571Z,0.00
2019-01-13T01:54:41.480Z,0.00
2019-01-13T01:55:41.392Z,0.00
2019-01-13T01:56:41.307Z,0.00
2019-01-13T01:57:41.233Z,0.00
2019-01-13T01:58:41.146Z,0.00
2019-01-13T01:59:41.058Z,0.00
2019-01-13T02:00:40.984Z,0.00
2019-01-13T02:01:40.881Z,0.00
2019-01-13T02:02:40.793Z,0.00
2019-01-13T02:03:40.706Z,0.00
2019-01-13T02:04:40.632Z,0.00
2019-01-13T02:05:40.580Z,0.00
2019-01-13T02:06:40.458Z,0.00
2019-01-13T02:07:40.369Z,0.00
2019-01-13T02:08:40.282Z,0.00
2019-01-13T02:09:40.196Z,0.00
2019-01-13T02:10:40.119Z,0.00
2019-01-13T02:11:40.032Z,0.00
2019-01-13T02:12:39.944Z,0.00
2019-01-13T02:13:39.858Z,0.00
2019-01-13T02:14:39.772Z,0.00
2019-01-13T02:15:39.683Z,0.00
2019-01-13T02:16:39.608Z,0.00
2019-01-13T02:17:39.520Z,0.00
2019-01-13T02:18:39.433Z,0.00
2019-01-13T02:19:39.345Z,0.00
2019-01-13T02:20:39.259Z,0.00
2019-01-13T02:21:39.171Z,0.00
2019-01-13T02:22:39.097Z,0.00
2019-01-13T02:23:39.008Z,0.00
2019-01-13T02:24:38.933Z,0.00
2019-01-13T02:25:38.834Z,0.00
2019-01-13T02:26:38.748Z,0.00
2019-01-13T02:27:38.661Z,0.00
2019-01-13T02:28:38.583Z,0.00
2019-01-13T02:29:38.497Z,0.00
2019-01-13T02:30:38.411Z,0.00
2019-01-13T02:31:38.326Z,0.00
2019-01-13T02:32:38.238Z,0.00
2019-01-13T02:33:38.147Z,0.00
2019-01-13T02:34:38.077Z,0.00
2019-01-13T02:35:37.986Z,0.00
2019-01-13T02:36:37.911Z,0.00
2019-01-13T02:37:37.809Z,0.00
2019-01-13T02:38:37.722Z,0.00
2019-01-13T02:39:37.639Z,0.00
2019-01-13T02:40:37.861Z,0.00
2019-01-13T02:41:37.473Z,0.00
2019-01-13T02:42:37.386Z,0.00
2019-01-13T02:43:37.310Z,0.00
2019-01-13T02:44:37.210Z,0.00
2019-01-13T02:45:37.127Z,0.00
2019-01-13T02:46:37.048Z,0.00
2019-01-13T02:47:36.963Z,0.00
2019-01-13T02:48:36.873Z,0.00
2019-01-13T02:49:36.790Z,0.00
2019-01-13T02:50:36.712Z,0.00
2019-01-13T02:51:36.613Z,0.00
2019-01-13T02:52:36.542Z,0.00
2019-01-13T02:53:36.450Z,0.00
2019-01-13T02:54:36.362Z,0.00
2019-01-13T02:55:36.273Z,0.00
2019-01-13T02:56:36.188Z,0.00
2019-01-13T02:57:36.112Z,0.00
2019-01-13T02:58:36.026Z,0.00
2019-01-13T02:59:35.945Z,0.00
2019-01-13T03:00:35.851Z,0.00
2019-01-13T03:01:35.762Z,0.00
2019-01-13T03:02:35.677Z,0.00
2019-01-13T03:03:35.588Z,0.00
2019-01-13T03:04:35.513Z,0.00
2019-01-13T03:05:35.428Z,0.00
2019-01-13T03:06:35.343Z,0.00
2019-01-13T03:07:35.250Z,0.00
2019-01-13T03:08:35.164Z,0.00
2019-01-13T03:09:35.078Z,0.00
2019-01-13T03:10:35.001Z,0.00
2019-01-13T03:11:34.915Z,0.00
2019-01-13T03:12:34.838Z,0.00
2019-01-13T03:13:34.738Z,0.00
2019-01-13T03:14:34.653Z,0.00
2019-01-13T03:15:34.864Z,0.00
2019-01-13T03:16:34.490Z,0.00
2019-01-13T03:17:34.412Z,0.00
2019-01-13T03:18:34.314Z,0.00
2019-01-13T03:19:34.234Z,0.00
2019-01-13T03:20:34.140Z,0.00
2019-01-13T03:21:34.051Z,0.00
2019-01-13T03:22:33.978Z,0.00
2019-01-13T03:23:33.890Z,0.00
2019-01-13T03:24:33.804Z,0.00
2019-01-13T03:25:33.721Z,0.00
2019-01-13T03:26:33.628Z,0.00
2019-01-13T03:27:33.550Z,0.00
2019-01-13T03:28:33.465Z,0.00
2019-01-13T03:29:33.382Z,0.00
2019-01-13T03:30:33.292Z,0.00
2019-01-13T03:31:33.206Z,0.00
2019-01-13T03:32:33.119Z,0.00
2019-01-13T03:33:33.029Z,0.00
2019-01-13T03:34:32.953Z,0.00
2019-01-13T03:35:32.867Z,0.00
2019-01-13T03:36:32.778Z,0.00
2019-01-13T03:37:32.693Z,0.00
2019-01-13T03:38:32.607Z,0.00
2019-01-13T03:39:32.526Z,0.00
2019-01-13T03:40:32.428Z,0.00
2019-01-13T03:41:32.354Z,0.00
2019-01-13T03:42:32.268Z,0.00
2019-01-13T03:43:32.179Z,0.00
2019-01-13T03:44:32.091Z,0.00
2019-01-13T03:45:32.005Z,0.00
2019-01-13T03:46:31.928Z,0.00
2019-01-13T03:47:31.846Z,0.00
2019-01-13T03:48:31.754Z,0.00
2019-01-13T03:49:31.668Z,0.00
2019-01-13T03:50:31.579Z,0.00
2019-01-13T03:51:31.501Z,0.00
2019-01-13T03:52:31.406Z,0.00
2019-01-13T03:53:31.329Z,0.00
2019-01-13T03:54:31.245Z,0.00
2019-01-13T03:55:31.156Z,0.00
2019-01-13T03:56:31.069Z,0.00
2019-01-13T03:57:30.980Z,0.00
2019-01-13T03:58:30.894Z,0.00
2019-01-13T03:59:30.818Z,0.00
2019-01-13T04:00:31.032Z,0.00
2019-01-13T04:01:30.645Z,0.00
2019-01-13T04:02:30.569Z,0.00
2019-01-13T04:03:30.469Z,0.00
2019-01-13T04:04:30.381Z,0.00
2019-01-13T04:05:30.298Z,0.00
2019-01-13T04:06:30.219Z,0.00
2019-01-13T04:07:30.131Z,0.00
2019-01-13T04:08:30.045Z,0.00
2019-01-13T04:09:29.958Z,0.00
2019-01-13T04:10:29.870Z,0.00
2019-01-13T04:11:29.784Z,0.00
2019-01-13T04:12:29.709Z,0.00
2019-01-13T04:13:29.621Z,0.00
2019-01-13T04:14:29.532Z,0.00
2019-01-13T04:15:29.445Z,0.00
2019-01-13T04:16:29.357Z,0.00
2019-01-13T04:17:29.272Z,0.00
2019-01-13T04:18:29.195Z,0.00
2019-01-13T04:19:29.107Z,0.00
2019-01-13T04:20:29.023Z,0.00
2019-01-13T04:21:28.935Z,0.00
2019-01-13T04:22:28.846Z,0.00
2019-01-13T04:23:28.758Z,0.00
2019-01-13T04:24:28.683Z,0.00
2019-01-13T04:25:28.596Z,0.00
2019-01-13T04:26:28.509Z,0.00
2019-01-13T04:27:28.422Z,0.00
2019-01-13T04:28:28.340Z,0.00
2019-01-13T04:29:28.249Z,0.00
2019-01-13T04:30:28.173Z,0.00
2019-01-13T04:31:28.084Z,0.00
2019-01-13T04:32:27.999Z,0.00
2019-01-13T04:33:27.912Z,0.00
2019-01-13T04:34:27.822Z,0.00
2019-01-13T04:35:27.735Z,0.00
2019-01-13T04:36:27.662Z,0.00
2019-01-13T04:37:27.572Z,0.00
2019-01-13T04:38:27.485Z,0.00
2019-01-13T04:39:27.398Z,0.00
2019-01-13T04:40:27.311Z,0.00
2019-01-13T04:41:27.224Z,0.00
2019-01-13T04:42:27.148Z,0.00
2019-01-13T04:43:27.060Z,0.00
2019-01-13T04:44:26.975Z,0.00
2019-01-13T04:45:26.889Z,0.00
2019-01-13T04:46:26.799Z,0.00
2019-01-13T04:47:26.725Z,0.00
2019-01-13T04:48:26.636Z,0.00
2019-01-13T04:49:26.551Z,0.00
2019-01-13T04:50:26.461Z,0.00
2019-01-13T04:51:26.374Z,0.00
2019-01-13T04:52:26.286Z,0.00
2019-01-13T04:53:26.212Z,0.00
2019-01-13T04:54:26.127Z,0.00
2019-01-13T04:55:26.041Z,0.00
2019-01-13T04:56:25.949Z,0.00
2019-01-13T04:57:25.863Z,0.00
2019-01-13T04:58:25.829Z,0.00
2019-01-13T04:59:25.699Z,0.00
2019-01-13T05:00:25.612Z,0.00
2019-01-13T05:01:25.525Z,0.00
2019-01-13T05:02:25.438Z,0.00
2019-01-13T05:03:25.363Z,0.00
2019-01-13T05:04:25.263Z,0.00
2019-01-13T05:05:25.188Z,0.00
2019-01-13T05:06:25.102Z,0.00
2019-01-13T05:07:25.012Z,0.00
2019-01-13T05:08:24.926Z,0.00
2019-01-13T05:09:24.838Z,0.00
2019-01-13T05:10:24.750Z,0.00
2019-01-13T05:11:24.677Z,0.00
2019-01-13T05:12:24.588Z,0.00
2019-01-13T05:13:24.510Z,0.00
2019-01-13T05:14:24.416Z,0.00
2019-01-13T05:15:24.328Z,0.00
2019-01-13T05:16:24.253Z,0.00
2019-01-13T05:17:24.163Z,0.00
2019-01-13T05:18:24.078Z,0.00
2019-01-13T05:19:23.989Z,0.00
2019-01-13T05:20:23.905Z,0.00
2019-01-13T05:21:23.814Z,0.00
2019-01-13T05:22:23.729Z,0.00
2019-01-13T05:23:23.652Z,0.00
2019-01-13T05:24:23.564Z,0.00
2019-01-13T05:25:23.778Z,0.00
2019-01-13T05:26:23.393Z,0.00
2019-01-13T05:27:23.303Z,0.00
2019-01-13T05:28:23.218Z,0.00
2019-01-13T05:29:23.140Z,0.00
2019-01-13T05:30:23.053Z,0.00
2019-01-13T05:31:22.978Z,0.00
2019-01-13T05:32:22.878Z,0.00
2019-01-13T05:33:22.791Z,0.00
2019-01-13T05:34:22.715Z,0.00
2019-01-13T05:35:22.628Z,0.00
2019-01-13T05:36:22.540Z,0.00
2019-01-13T05:37:22.454Z,0.00
2019-01-13T05:38:22.367Z,0.00
2019-01-13T05:39:22.279Z,0.00
2019-01-13T05:40:22.193Z,0.00
2019-01-13T05:41:22.116Z,0.00
2019-01-13T05:42:22.029Z,0.00
2019-01-13T05:43:21.942Z,0.00
2019-01-13T05:44:21.857Z,0.00
2019-01-13T05:45:21.767Z,0.00
2019-01-13T05:46:21.693Z,0.00
2019-01-13T05:47:21.607Z,0.00
2019-01-13T05:48:21.517Z,0.00
2019-01-13T05:49:21.431Z,0.00
2019-01-13T05:50:21.342Z,0.00
2019-01-13T05:51:21.255Z,0.00
2019-01-13T05:52:21.180Z,0.00
2019-01-13T05:53:21.092Z,0.00
2019-01-13T05:54:21.006Z,0.00
2019-01-13T05:55:20.918Z,0.00
2019-01-13T05:56:20.831Z,0.00
2019-01-13T05:57:20.746Z,0.00
2019-01-13T05:58:20.668Z,0.00
2019-01-13T05:59:20.582Z,0.00
2019-01-13T06:00:20.499Z,0.00
2019-01-13T06:01:20.406Z,0.00
2019-01-13T06:02:20.332Z,0.00
2019-01-13T06:03:20.231Z,0.00
2019-01-13T06:04:20.157Z,0.00
2019-01-13T06:05:20.069Z,0.00
2019-01-13T06:06:19.982Z,0.00
2019-01-13T06:07:19.894Z,0.00
2019-01-13T06:08:19.807Z,0.00
2019-01-13T06:09:19.721Z,0.00
2019-01-13T06:10:19.643Z,0.00
2019-01-13T06:11:19.559Z,0.00
2019-01-13T06:12:19.469Z,0.00
2019-01-13T06:13:19.382Z,0.00
2019-01-13T06:14:19.298Z,0.00
2019-01-13T06:15:19.219Z,0.00
2019-01-13T06:16:19.133Z,0.00
2019-01-13T06:17:19.058Z,0.00
2019-01-13T06:18:18.959Z,0.00
2019-01-13T06:19:18.873Z,0.00
2019-01-13T06:20:18.784Z,0.00
2019-01-13T06:21:18.708Z,0.00
2019-01-13T06:22:18.620Z,0.00
2019-01-13T06:23:18.536Z,0.00
2019-01-13T06:24:18.446Z,0.00
2019-01-13T06:25:18.359Z,0.00
2019-01-13T06:26:18.271Z,0.00
2019-01-13T06:27:18.200Z,0.00
2019-01-13T06:28:18.109Z,0.00
2019-01-13T06:29:18.021Z,0.00
2019-01-13T06:30:17.934Z,0.00
2019-01-13T06:31:17.861Z,0.00
2019-01-13T06:32:17.759Z,0.00
2019-01-13T06:33:17.685Z,0.00
2019-01-13T06:34:17.611Z,0.00
2019-01-13T06:35:17.517Z,0.00
2019-01-13T06:36:17.422Z,0.00
2019-01-13T06:37:17.337Z,0.00
2019-01-13T06:38:17.252Z,0.00
2019-01-13T06:39:17.172Z,0.00
2019-01-13T06:40:17.085Z,0.00
2019-01-13T06:41:17.020Z,4.00
2019-01-13T06:42:16.910Z,4.00
2019-01-13T06:43:16.823Z,4.00
2019-01-13T06:44:16.748Z,4.00
2019-01-13T06:45:16.660Z,0.00
2019-01-13T06:46:16.572Z,4.00
2019-01-13T06:47:16.486Z,4.00
2019-01-13T06:48:16.398Z,4.00
2019-01-13T06:49:16.312Z,4.00
2019-01-13T06:50:16.237Z,4.00
2019-01-13T06:51:16.149Z,4.00
2019-01-13T06:52:16.062Z,4.00
2019-01-13T06:53:15.973Z,8.00
2019-01-13T06:54:15.887Z,4.00
2019-01-13T06:55:15.799Z,12.00
2019-01-13T06:56:15.724Z,8.00
2019-01-13T06:57:15.637Z,12.00
2019-01-13T06:58:15.549Z,12.00
2019-01-13T06:59:15.464Z,16.00
2019-01-13T07:00:15.390Z,12.00
2019-01-13T07:01:15.300Z,8.00
2019-01-13T07:02:15.217Z,12.00
2019-01-13T07:03:15.126Z,12.00
2019-01-13T07:04:15.039Z,20.00
2019-01-13T07:05:14.952Z,24.00
2019-01-13T07:06:14.875Z,24.00
2019-01-13T07:07:14.788Z,32.00
2019-01-13T07:08:14.700Z,40.00
2019-01-13T07:09:14.614Z,40.00
2019-01-13T07:10:14.576Z,44.00
2019-01-13T07:11:14.439Z,44.00
2019-01-13T07:12:14.365Z,44.00
2019-01-13T07:13:14.278Z,48.00
2019-01-13T07:14:14.192Z,52.00
2019-01-13T07:15:14.101Z,60.00
2019-01-13T07:16:14.021Z,84.00
2019-01-13T07:17:13.927Z,84.00
2019-01-13T07:18:13.852Z,92.00
2019-01-13T07:19:13.765Z,104.00
2019-01-13T07:20:13.694Z,140.00
2019-01-13T07:21:13.592Z,140.00
2019-01-13T07:22:13.503Z,148.00
2019-01-13T07:23:13.427Z,140.00
2019-01-13T07:24:13.340Z,164.00
2019-01-13T07:25:13.252Z,156.00
2019-01-13T07:26:13.165Z,176.00
2019-01-13T07:27:13.077Z,240.00
2019-01-13T07:28:13.002Z,280.00
2019-01-13T07:29:12.918Z,252.00
2019-01-13T07:30:12.828Z,244.00
2019-01-13T07:31:12.742Z,256.00
2019-01-13T07:32:12.653Z,272.00
2019-01-13T07:33:12.579Z,276.00
2019-01-13T07:34:12.492Z,300.00
2019-01-13T07:35:12.417Z,336.00
2019-01-13T07:36:12.316Z,432.00
2019-01-13T07:37:12.228Z,408.00
2019-01-13T07:38:12.145Z,360.00
2019-01-13T07:39:12.066Z,364.00
2019-01-13T07:40:11.978Z,400.00
2019-01-13T07:41:11.892Z,388.00
2019-01-13T07:42:11.805Z,320.00
2019-01-13T07:43:11.718Z,364.00
2019-01-13T07:44:11.631Z,448.00
2019-01-13T07:45:11.554Z,456.00
2019-01-13T07:46:11.470Z,384.00
2019-01-13T07:47:11.379Z,336.00
2019-01-13T07:48:11.293Z,324.00
2019-01-13T07:49:11.207Z,316.00
2019-01-13T07:50:11.129Z,340.00
2019-01-13T07:51:11.043Z,292.00
2019-01-13T07:52:10.955Z,260.00
2019-01-13T07:53:10.868Z,228.00
2019-01-13T07:54:10.780Z,248.00
2019-01-13T07:55:10.708Z,220.00
2019-01-13T07:56:10.618Z,308.00
2019-01-13T07:57:10.531Z,256.00
2019-01-13T07:58:10.443Z,232.00
2019-01-13T07:59:10.356Z,256.00
2019-01-13T08:00:10.280Z,240.00
2019-01-13T08:01:10.198Z,288.00
2019-01-13T08:02:10.106Z,308.00
2019-01-13T08:03:10.020Z,320.00
2019-01-13T08:04:09.931Z,476.00
2019-01-13T08:05:09.860Z,644.00
2019-01-13T08:06:09.770Z,580.00
2019-01-13T08:07:09.682Z,480.00
2019-01-13T08:08:09.594Z,528.00
2019-01-13T08:09:09.509Z,496.00
2019-01-13T08:10:09.432Z,432.00
2019-01-13T08:11:09.346Z,508.00
2019-01-13T08:12:09.257Z,568.00
2019-01-13T08:13:09.170Z,660.00
2019-01-13T08:14:09.082Z,520.00
2019-01-13T08:15:09.007Z,488.00
2019-01-13T08:16:08.922Z,460.00
2019-01-13T08:17:08.832Z,436.00
2019-01-13T08:18:08.746Z,528.00
2019-01-13T08:19:08.658Z,780.00
2019-01-13T08:20:08.583Z,632.00
2019-01-13T08:21:08.496Z,528.00
2019-01-13T08:22:08.409Z,480.00
2019-01-13T08:23:08.321Z,612.00
2019-01-13T08:24:08.233Z,800.00
2019-01-13T08:25:08.158Z,628.00
2019-01-13T08:26:08.071Z,700.00
2019-01-13T08:27:07.983Z,804.00
2019-01-13T08:28:07.897Z,1188.00
2019-01-13T08:29:07.824Z,1184.00
2019-01-13T08:30:07.734Z,1060.00
2019-01-13T08:31:07.648Z,1080.00
2019-01-13T08:32:07.559Z,928.00
2019-01-13T08:33:07.485Z,968.00
2019-01-13T08:34:07.385Z,1052.00
2019-01-13T08:35:07.325Z,880.00
2019-01-13T08:36:07.224Z,824.00
2019-01-13T08:37:07.135Z,1016.00
2019-01-13T08:38:07.049Z,860.00
2019-01-13T08:39:06.965Z,812.00
2019-01-13T08:40:06.885Z,952.00
2019-01-13T08:41:06.798Z,828.00
2019-01-13T08:42:06.723Z,852.00
2019-01-13T08:43:06.623Z,696.00
2019-01-13T08:44:06.537Z,752.00
2019-01-13T08:45:06.460Z,676.00
2019-01-13T08:46:06.374Z,680.00
2019-01-13T08:47:06.285Z,712.00
2019-01-13T08:48:06.201Z,716.00
2019-01-13T08:49:06.127Z,856.00
2019-01-13T08:50:06.036Z,720.00
2019-01-13T08:51:05.949Z,760.00
2019-01-13T08:52:05.863Z,788.00
2019-01-13T08:53:05.775Z,800.00
2019-01-13T08:54:05.706Z,892.00
2019-01-13T08:55:05.612Z,856.00
2019-01-13T08:56:05.525Z,736.00
2019-01-13T08:57:05.437Z,1056.00
2019-01-13T08:58:05.378Z,940.00
2019-01-13T08:59:05.276Z,1060.00
2019-01-13T09:00:05.187Z,1004.00
2019-01-13T09:01:05.101Z,952.00
2019-01-13T09:02:05.013Z,972.00
2019-01-13T09:03:04.937Z,976.00
2019-01-13T09:04:04.850Z,1380.00
2019-01-13T09:05:04.765Z,1796.00
2019-01-13T09:06:04.678Z,1724.00
2019-01-13T09:07:04.596Z,1640.00
2019-01-13T09:08:04.513Z,1728.00
2019-01-13T09:09:04.427Z,1868.00
2019-01-13T09:10:04.340Z,1360.00
2019-01-13T09:11:04.251Z,1072.00
2019-01-13T09:12:04.167Z,1116.00
2019-01-13T09:13:04.105Z,1056.00
2019-01-13T09:14:04.002Z,1224.00
2019-01-13T09:15:03.915Z,1028.00
2019-01-13T09:16:03.827Z,900.00
2019-01-13T09:17:03.751Z,840.00
2019-01-13T09:18:03.663Z,924.00
2019-01-13T09:19:03.577Z,872.00
2019-01-13T09:20:03.495Z,788.00
2019-01-13T09:21:03.403Z,856.00
2019-01-13T09:22:03.326Z,888.00
2019-01-13T09:23:03.240Z,916.00
2019-01-13T09:24:03.153Z,800.00
2019-01-13T09:25:03.065Z,772.00
2019-01-13T09:26:02.982Z,872.00
2019-01-13T09:27:02.903Z,1128.00
2019-01-13T09:28:03.562Z,1376.00
2019-01-13T09:29:02.735Z,1412.00
2019-01-13T09:30:02.654Z,1324.00
2019-01-13T09:31:02.553Z,1900.00
2019-01-13T09:32:02.485Z,1516.00
2019-01-13T09:33:02.391Z,1408.00
2019-01-13T09:34:02.304Z,1180.00
2019-01-13T09:35:02.221Z,1116.00
2019-01-13T09:36:02.129Z,1008.00
2019-01-13T09:37:02.054Z,1388.00
2019-01-13T09:38:01.967Z,1316.00
2019-01-13T09:39:01.884Z,1220.00
2019-01-13T09:40:01.792Z,1676.00
2019-01-13T09:41:01.704Z,1376.00
2019-01-13T09:42:01.635Z,1300.00
2019-01-13T09:43:01.556Z,1420.00
2019-01-13T09:44:01.455Z,1340.00
2019-01-13T09:45:01.368Z,1880.00
2019-01-13T09:46:01.284Z,2416.00
2019-01-13T09:47:01.205Z,1932.00
2019-01-13T09:48:01.118Z,2196.00
2019-01-13T09:49:01.032Z,2676.00
2019-01-13T09:50:00.955Z,2052.00
2019-01-13T09:51:00.856Z,2360.00
2019-01-13T09:52:00.770Z,2048.00
2019-01-13T09:53:00.693Z,2296.00
2019-01-13T09:54:00.606Z,2148.00
2019-01-13T09:55:00.518Z,2412.00
2019-01-13T09:56:00.431Z,2488.00
2019-01-13T09:57:00.345Z,2620.00
2019-01-13T09:58:00.268Z,2988.00
2019-01-13T09:59:00.186Z,3116.00
2019-01-13T10:00:00.262Z,2604.00
2019-01-13T10:01:00.010Z,2388.00
2019-01-13T10:01:59.920Z,2176.00
2019-01-13T10:02:59.843Z,1984.00
2019-01-13T10:03:59.757Z,2084.00
2019-01-13T10:04:59.682Z,2428.00
2019-01-13T10:05:59.582Z,2616.00
2019-01-13T10:06:59.494Z,2648.00
2019-01-13T10:07:59.419Z,2576.00
2019-01-13T10:08:59.332Z,2664.00
2019-01-13T10:09:59.244Z,2764.00
2019-01-13T10:10:59.158Z,3016.00
2019-01-13T10:11:59.070Z,2832.00
2019-01-13T10:12:58.994Z,2240.00
2019-01-13T10:13:58.909Z,2300.00
2019-01-13T10:14:58.820Z,2396.00
2019-01-13T10:15:58.734Z,2248.00
2019-01-13T10:16:58.645Z,1940.00
2019-01-13T10:17:58.573Z,1984.00
2019-01-13T10:18:58.483Z,2304.00
2019-01-13T10:19:58.395Z,1924.00
2019-01-13T10:20:58.309Z,2040.00
2019-01-13T10:21:58.234Z,1932.00
2019-01-13T10:22:58.134Z,1732.00
2019-01-13T10:23:58.068Z,2092.00
2019-01-13T10:24:57.971Z,2580.00
2019-01-13T10:25:57.888Z,2764.00
2019-01-13T10:26:57.800Z,2164.00
2019-01-13T10:27:57.710Z,2524.00
2019-01-13T10:28:57.635Z,2428.00
2019-01-13T10:29:57.546Z,2424.00
2019-01-13T10:31:03.137Z,2364.00
2019-01-13T10:31:57.372Z,2100.00
2019-01-13T10:32:57.289Z,2084.00
2019-01-13T10:33:57.210Z,2824.00
2019-01-13T10:34:57.122Z,2320.00
2019-01-13T10:35:57.035Z,2620.00
2019-01-13T10:36:56.947Z,2944.00
2019-01-13T10:37:56.861Z,2996.00
2019-01-13T10:38:56.785Z,2536.00
2019-01-13T10:39:56.714Z,2716.00
2019-01-13T10:40:56.610Z,2940.00
2019-01-13T10:41:56.523Z,2128.00
2019-01-13T10:42:56.436Z,1804.00
2019-01-13T10:43:56.362Z,2036.00
2019-01-13T10:44:56.273Z,2976.00
2019-01-13T10:45:56.186Z,3176.00
2019-01-13T10:46:56.098Z,3116.00
2019-01-13T10:47:56.023Z,2532.00
2019-01-13T10:48:55.937Z,2524.00
2019-01-13T10:49:55.862Z,2172.00
2019-01-13T10:50:55.762Z,3284.00
2019-01-13T10:51:55.673Z,3380.00
2019-01-13T10:52:55.587Z,2688.00
2019-01-13T10:53:55.513Z,2708.00
2019-01-13T10:54:55.424Z,3208.00
2019-01-13T10:55:55.587Z,3264.00
2019-01-13T10:56:55.250Z,3532.00
2019-01-13T10:57:55.162Z,2932.00
2019-01-13T10:58:55.076Z,2728.00
2019-01-13T10:59:55.000Z,2932.00
2019-01-13T11:00:54.914Z,2456.00
2019-01-13T11:01:54.825Z,2500.00
2019-01-13T11:03:01.721Z,2336.00
2019-01-13T11:03:54.663Z,2236.00
2019-01-13T11:04:54.575Z,2276.00
2019-01-13T11:05:54.488Z,2012.00
2019-01-13T11:06:54.414Z,1836.00
2019-01-13T11:07:54.314Z,1996.00
2019-01-13T11:08:54.227Z,2364.00
2019-01-13T11:09:54.151Z,1772.00
2019-01-13T11:10:54.064Z,1512.00
2019-01-13T11:11:53.980Z,1560.00
2019-01-13T11:12:53.890Z,1556.00
2019-01-13T11:13:53.802Z,1384.00
2019-01-13T11:14:53.727Z,1340.00
2019-01-13T11:15:53.639Z,1776.00
2019-01-13T11:16:53.551Z,2492.00
2019-01-13T11:17:53.465Z,2632.00
2019-01-13T11:18:53.378Z,2988.00
2019-01-13T11:19:53.302Z,2576.00
2019-01-13T11:20:53.215Z,2628.00
2019-01-13T11:21:53.140Z,2252.00
2019-01-13T11:22:53.042Z,2720.00
2019-01-13T11:23:52.952Z,2180.00
2019-01-13T11:24:52.878Z,2864.00
2019-01-13T11:25:52.791Z,2456.00
2019-01-13T11:26:52.703Z,2636.00
2019-01-13T11:27:52.616Z,3224.00
2019-01-13T11:28:52.528Z,3192.00
2019-01-13T11:29:52.453Z,2908.00
2019-01-13T11:30:52.366Z,3100.00
2019-01-13T11:31:52.292Z,2648.00
2019-01-13T11:32:52.193Z,2744.00
2019-01-13T11:33:52.104Z,2668.00
2019-01-13T11:34:52.021Z,2484.00
2019-01-13T11:35:51.942Z,2784.00
2019-01-13T11:36:51.854Z,2140.00
2019-01-13T11:37:51.768Z,2268.00
2019-01-13T11:38:51.679Z,1828.00
2019-01-13T11:39:51.592Z,1836.00
2019-01-13T11:40:51.521Z,2692.00
2019-01-13T11:41:51.429Z,2712.00
2019-01-13T11:42:51.343Z,2840.00
2019-01-13T11:43:51.254Z,3492.00
2019-01-13T11:44:51.170Z,3516.00
2019-01-13T11:45:51.093Z,2764.00
2019-01-13T11:46:51.005Z,2352.00
2019-01-13T11:47:50.918Z,2492.00
2019-01-13T11:48:50.883Z,2876.00
2019-01-13T11:49:50.743Z,3320.00
2019-01-13T11:50:50.669Z,3656.00
2019-01-13T11:51:50.580Z,3084.00
2019-01-13T11:52:50.498Z,2932.00
2019-01-13T11:53:50.405Z,2036.00
2019-01-13T11:54:50.320Z,1632.00
2019-01-13T11:55:50.244Z,1936.00
2019-01-13T11:56:50.157Z,1588.00
2019-01-13T11:57:50.069Z,1644.00
2019-01-13T11:58:49.981Z,1560.00
2019-01-13T11:59:49.895Z,1480.00
2019-01-13T12:00:49.870Z,1872.00
2019-01-13T12:01:49.732Z,1692.00
2019-01-13T12:02:49.644Z,2388.00
2019-01-13T12:03:49.556Z,2332.00
2019-01-13T12:04:49.470Z,2496.00
2019-01-13T12:05:49.385Z,2568.00
2019-01-13T12:06:49.306Z,1856.00
2019-01-13T12:07:49.220Z,2168.00
2019-01-13T12:08:49.132Z,2044.00
2019-01-13T12:09:49.046Z,2000.00
2019-01-13T12:10:48.970Z,1912.00
2019-01-13T12:11:48.883Z,1696.00
2019-01-13T12:12:48.796Z,2404.00
2019-01-13T12:13:48.708Z,2432.00
2019-01-13T12:14:48.621Z,1996.00
2019-01-13T12:15:48.533Z,2132.00
2019-01-13T12:16:48.459Z,1912.00
2019-01-13T12:17:48.372Z,1912.00
2019-01-13T12:18:48.283Z,1952.00
2019-01-13T12:19:48.196Z,1752.00
2019-01-13T12:20:48.109Z,2008.00
2019-01-13T12:21:48.033Z,2088.00
2019-01-13T12:22:47.947Z,2352.00
2019-01-13T12:23:47.859Z,1908.00
2019-01-13T12:24:47.772Z,2296.00
2019-01-13T12:25:52.629Z,2060.00
2019-01-13T12:26:47.597Z,1928.00
2019-01-13T12:27:47.522Z,1676.00
2019-01-13T12:28:47.434Z,1540.00
2019-01-13T12:29:47.352Z,1488.00
2019-01-13T12:30:47.260Z,1804.00
2019-01-13T12:31:47.174Z,1300.00
2019-01-13T12:32:47.097Z,1412.00
2019-01-13T12:33:47.009Z,1480.00
2019-01-13T12:34:46.923Z,1812.00
2019-01-13T12:35:46.835Z,1816.00
2019-01-13T12:36:46.751Z,2040.00
2019-01-13T12:37:46.662Z,1740.00
2019-01-13T12:38:46.588Z,1908.00
2019-01-13T12:39:46.499Z,1920.00
2019-01-13T12:40:46.410Z,1604.00
2019-01-13T12:41:46.325Z,1556.00
2019-01-13T12:42:46.248Z,1664.00
2019-01-13T12:43:46.160Z,1560.00
2019-01-13T12:44:46.076Z,1340.00
2019-01-13T12:45:45.986Z,1252.00
2019-01-13T12:46:45.900Z,1512.00
2019-01-13T12:47:45.811Z,1504.00